Time;durP1;ratioP1;P1;durP2;ratioP2;P2;SDS_P1;SDS_P2;PMS_P1;PMS_P2;Temp;Humidity;BMP_temperature;BMP_pressure;BME280_temperature;BME280_humidity;BME280_pressure;Samples;Min_cycle;Max_cycle;Signal;HPM_P1;HPM_P2
2023/08/15 00:01:57;;;;;;;;;;;24.80;74.00;;;;;;5034720;28;19917;-55
2023/08/15 00:04:22;;;;;;;;;;;24.80;73.70;;;;;;5029663;28;20031;-55
2023/08/15 00:06:48;;;;;;;;;;;24.80;74.20;;;;;;5034639;28;19913;-56
2023/08/15 00:09:13;;;;;;;;;;;24.80;73.90;;;;;;5045273;28;19994;-56
2023/08/15 00:11:39;;;;;;;;;;;24.80;73.90;;;;;;5048431;28;20300;-56
2023/08/15 00:14:04;;;;;;;;;;;24.80;73.70;;;;;;5043628;28;20308;-56
2023/08/15 00:16:30;;;;;;;;;;;24.80;73.90;;;;;;5049334;28;19913;-57
2023/08/15 00:18:55;;;;;;;;;;;24.80;74.00;;;;;;5050487;28;19919;-55
2023/08/15 00:21:21;;;;;;;;;;;24.80;73.80;;;;;;5037115;28;20013;-56
2023/08/15 00:23:46;;;;;;;;;;;24.80;74.00;;;;;;5046744;28;19920;-55
2023/08/15 00:26:11;;;;;;;;;;;24.70;74.20;;;;;;5042416;28;19913;-55
2023/08/15 00:28:37;;;;;;;;;;;24.70;74.70;;;;;;5043588;28;20058;-56
2023/08/15 00:31:02;;;;;;;;;;;24.70;74.40;;;;;;5027350;28;20008;-56
2023/08/15 00:33:28;;;;;;;;;;;24.70;74.50;;;;;;5052332;28;19967;-55
2023/08/15 00:35:53;;;;;;;;;;;24.70;74.30;;;;;;5039005;28;19959;-56
2023/08/15 00:38:19;;;;;;;;;;;24.70;74.10;;;;;;5025052;28;19952;-55
2023/08/15 00:40:44;;;;;;;;;;;24.60;74.50;;;;;;5021960;28;19917;-56
2023/08/15 00:43:10;;;;;;;;;;;24.60;75.10;;;;;;5029873;28;19917;-56
2023/08/15 00:45:37;;;;;;;;;;;24.60;74.80;;;;;;5037375;28;20285;-55
2023/08/15 00:48:03;;;;;;;;;;;24.60;75.00;;;;;;5037315;28;19917;-56
2023/08/15 00:50:28;;;;;;;;;;;24.60;75.20;;;;;;5020866;28;19932;-55
2023/08/15 00:52:54;;;;;;;;;;;24.60;75.40;;;;;;5006390;28;19918;-56
2023/08/15 00:55:19;;;;;;;;;;;24.60;75.50;;;;;;5022866;28;19924;-55
2023/08/15 00:57:45;;;;;;;;;;;24.60;75.70;;;;;;5011135;28;19953;-55
2023/08/15 01:00:11;;;;;;;;;;;24.60;75.50;;;;;;5007284;28;19921;-56
2023/08/15 01:02:37;;;;;;;;;;;24.50;75.40;;;;;;5026073;28;19998;-56
2023/08/15 01:05:04;;;;;;;;;;;24.50;75.10;;;;;;5024036;28;20305;-55
2023/08/15 01:07:30;;;;;;;;;;;24.50;75.80;;;;;;5012240;28;20373;-55
2023/08/15 01:09:56;;;;;;;;;;;24.50;76.20;;;;;;5009288;28;20003;-55
2023/08/15 01:12:36;;;;;;;;;;;24.50;76.20;;;;;;5024143;28;19937;-55
2023/08/15 01:15:03;;;;;;;;;;;24.50;76.70;;;;;;5022971;28;19937;-55
2023/08/15 01:17:49;;;;;;;;;;;24.40;75.90;;;;;;5007314;28;20008;-56
2023/08/15 01:20:15;;;;;;;;;;;24.40;76.50;;;;;;5019514;28;20451;-56
2023/08/15 01:22:43;;;;;;;;;;;24.50;76.00;;;;;;5023263;28;19927;-55
2023/08/15 01:25:08;;;;;;;;;;;24.40;76.00;;;;;;5022919;28;19921;-55
2023/08/15 01:27:34;;;;;;;;;;;24.40;76.80;;;;;;5027829;28;19971;-55
2023/08/15 01:30:00;;;;;;;;;;;24.40;76.50;;;;;;5023113;28;20016;-56
2023/08/15 01:32:54;;;;;;;;;;;24.50;76.70;;;;;;5023226;28;20407;-56
2023/08/15 01:35:24;;;;;;;;;;;24.50;76.40;;;;;;4990276;28;19917;-55
2023/08/15 01:37:51;;;;;;;;;;;24.50;76.30;;;;;;5006335;28;20281;-55
2023/08/15 01:40:17;;;;;;;;;;;24.50;76.60;;;;;;5022168;28;19960;-55
2023/08/15 01:42:42;;;;;;;;;;;24.40;77.40;;;;;;5009099;28;19945;-56
2023/08/15 01:45:08;;;;;;;;;;;24.30;77.50;;;;;;5021789;28;19932;-56
2023/08/15 01:47:33;;;;;;;;;;;24.40;77.30;;;;;;5020464;28;20261;-56
2023/08/15 01:49:59;;;;;;;;;;;24.40;76.90;;;;;;5008073;28;19928;-56
2023/08/15 01:52:24;;;;;;;;;;;24.30;77.10;;;;;;5023447;28;20016;-56
2023/08/15 01:54:50;;;;;;;;;;;24.30;77.80;;;;;;5022451;28;19913;-56
2023/08/15 01:57:15;;;;;;;;;;;24.30;78.30;;;;;;5023776;28;19913;-55
2023/08/15 01:59:43;;;;;;;;;;;24.30;77.60;;;;;;5008045;28;19927;-55
2023/08/15 02:02:09;;;;;;;;;;;24.30;77.70;;;;;;5023853;28;20341;-55
2023/08/15 02:04:35;;;;;;;;;;;24.20;78.60;;;;;;5042219;28;20349;-55
2023/08/15 02:07:00;;;;;;;;;;;24.30;78.70;;;;;;5030257;28;20007;-55
2023/08/15 02:09:26;;;;;;;;;;;24.10;78.20;;;;;;5040935;28;20440;-55
2023/08/15 02:11:52;;;;;;;;;;;24.20;79.50;;;;;;5044933;28;19956;-56
2023/08/15 02:14:18;;;;;;;;;;;24.10;77.90;;;;;;5044994;28;19939;-55
2023/08/15 02:16:43;;;;;;;;;;;24.20;79.70;;;;;;5029858;28;19921;-56
2023/08/15 02:19:09;;;;;;;;;;;24.10;79.70;;;;;;5031757;28;19963;-55
2023/08/15 02:21:34;;;;;;;;;;;24.10;79.40;;;;;;5045190;28;19920;-56
2023/08/15 02:23:59;;;;;;;;;;;24.00;80.10;;;;;;5050652;28;19908;-57
2023/08/15 02:26:25;;;;;;;;;;;24.00;79.90;;;;;;5035981;28;19919;-55
2023/08/15 02:28:50;;;;;;;;;;;24.10;80.20;;;;;;5038744;28;19920;-55
2023/08/15 02:31:16;;;;;;;;;;;24.00;79.60;;;;;;5034866;28;19932;-55
2023/08/15 02:33:41;;;;;;;;;;;24.10;80.30;;;;;;5051975;28;19995;-56
2023/08/15 02:36:07;;;;;;;;;;;24.00;80.50;;;;;;5023193;28;19942;-56
2023/08/15 02:38:33;;;;;;;;;;;24.00;80.30;;;;;;5023752;28;20386;-56
2023/08/15 02:40:58;;;;;;;;;;;24.10;80.00;;;;;;5020131;28;19929;-55
2023/08/15 02:43:24;;;;;;;;;;;24.10;79.70;;;;;;5022484;28;20016;-56
2023/08/15 02:45:49;;;;;;;;;;;24.10;79.90;;;;;;5020971;28;20038;-55
2023/08/15 02:48:14;;;;;;;;;;;24.20;80.20;;;;;;5024206;28;19913;-55
2023/08/15 02:50:40;;;;;;;;;;;24.10;80.30;;;;;;5023434;28;19913;-55
2023/08/15 02:53:05;;;;;;;;;;;24.10;79.20;;;;;;5027601;28;19909;-56
2023/08/15 02:55:32;;;;;;;;;;;24.10;79.70;;;;;;5006672;28;19924;-57
2023/08/15 02:57:57;;;;;;;;;;;24.10;79.90;;;;;;5019175;28;20335;-55
2023/08/15 03:00:23;;;;;;;;;;;24.10;80.50;;;;;;5005140;28;19932;-56
2023/08/15 03:02:48;;;;;;;;;;;24.10;80.30;;;;;;5020281;28;19917;-56
2023/08/15 03:05:14;;;;;;;;;;;24.10;80.60;;;;;;5024438;28;19952;-56
2023/08/15 03:07:39;;;;;;;;;;;24.10;80.70;;;;;;5023834;28;19913;-56
2023/08/15 03:10:05;;;;;;;;;;;24.00;81.30;;;;;;5022534;28;19920;-55
2023/08/15 03:12:30;;;;;;;;;;;24.00;80.80;;;;;;5023960;28;19920;-56
2023/08/15 03:14:57;;;;;;;;;;;24.00;81.40;;;;;;5022987;28;19917;-55
2023/08/15 03:17:23;;;;;;;;;;;24.00;82.00;;;;;;5024643;28;19996;-56
2023/08/15 03:19:48;;;;;;;;;;;24.00;81.70;;;;;;5023835;28;20341;-56
2023/08/15 03:22:13;;;;;;;;;;;24.00;82.20;;;;;;5019526;28;19924;-57
2023/08/15 03:24:39;;;;;;;;;;;24.00;82.30;;;;;;5017805;28;19925;-55
2023/08/15 03:27:04;;;;;;;;;;;24.00;82.10;;;;;;5029278;28;20407;-56
2023/08/15 03:29:30;;;;;;;;;;;24.00;82.90;;;;;;5024480;28;19920;-55
2023/08/15 03:31:57;;;;;;;;;;;23.80;83.10;;;;;;5029257;28;19992;-56
2023/08/15 03:34:23;;;;;;;;;;;23.80;83.60;;;;;;5025357;28;21672;-55
2023/08/15 03:36:48;;;;;;;;;;;23.80;83.90;;;;;;5009571;28;20010;-56
2023/08/15 03:39:14;;;;;;;;;;;23.80;84.20;;;;;;5027055;28;19983;-55
2023/08/15 03:41:39;;;;;;;;;;;23.70;83.00;;;;;;5023703;28;19921;-56
2023/08/15 03:44:05;;;;;;;;;;;23.80;84.50;;;;;;5025009;28;20389;-56
2023/08/15 03:46:30;;;;;;;;;;;23.80;84.20;;;;;;5026450;28;20564;-56
2023/08/15 03:48:56;;;;;;;;;;;23.70;84.90;;;;;;5022321;28;19925;-56
2023/08/15 03:51:21;;;;;;;;;;;23.70;85.30;;;;;;5025362;28;19914;-55
2023/08/15 03:53:47;;;;;;;;;;;23.70;83.80;;;;;;5025580;28;19986;-55
2023/08/15 03:56:12;;;;;;;;;;;23.70;85.30;;;;;;5023478;28;19964;-55
2023/08/15 03:58:38;;;;;;;;;;;23.70;84.40;;;;;;5031786;28;19917;-56
2023/08/15 04:01:04;;;;;;;;;;;23.70;85.70;;;;;;5033041;28;19921;-57
2023/08/15 04:03:29;;;;;;;;;;;23.70;85.70;;;;;;5031740;28;19919;-56
2023/08/15 04:05:55;;;;;;;;;;;23.70;85.80;;;;;;5037805;28;20368;-56
2023/08/15 04:08:21;;;;;;;;;;;23.70;85.60;;;;;;5051572;28;19939;-55
2023/08/15 04:10:46;;;;;;;;;;;23.70;86.20;;;;;;5038939;28;19921;-55
2023/08/15 04:13:12;;;;;;;;;;;23.70;86.70;;;;;;5044449;28;21622;-56
2023/08/15 04:15:37;;;;;;;;;;;23.70;85.90;;;;;;5050722;28;20431;-55
2023/08/15 04:18:06;;;;;;;;;;;23.70;85.20;;;;;;5043605;28;19913;-55
2023/08/15 04:20:32;;;;;;;;;;;23.80;86.00;;;;;;5042291;28;19913;-55
2023/08/15 04:22:57;;;;;;;;;;;23.80;86.70;;;;;;5051965;28;19927;-56
2023/08/15 04:25:22;;;;;;;;;;;23.70;86.40;;;;;;5040341;28;19924;-59
2023/08/15 04:27:48;;;;;;;;;;;23.80;86.70;;;;;;5031739;28;19963;-55
2023/08/15 04:30:13;;;;;;;;;;;23.70;86.50;;;;;;5052332;28;19924;-56
2023/08/15 04:32:39;;;;;;;;;;;23.70;86.00;;;;;;5051693;28;20301;-55
2023/08/15 04:35:04;;;;;;;;;;;23.80;86.50;;;;;;5037694;28;19913;-55
2023/08/15 04:37:30;;;;;;;;;;;23.80;86.40;;;;;;5027292;28;19913;-55
2023/08/15 04:39:55;;;;;;;;;;;23.80;85.80;;;;;;5024547;28;19921;-56
2023/08/15 04:42:21;;;;;;;;;;;23.80;85.60;;;;;;5024830;28;19932;-57
2023/08/15 04:44:46;;;;;;;;;;;23.80;86.20;;;;;;5031703;28;19925;-55
2023/08/15 04:47:12;;;;;;;;;;;23.80;86.50;;;;;;5032914;28;19963;-55
2023/08/15 04:49:38;;;;;;;;;;;23.80;86.20;;;;;;5020917;28;19921;-55
2023/08/15 04:52:04;;;;;;;;;;;23.80;86.90;;;;;;5022210;28;19959;-55
2023/08/15 04:54:29;;;;;;;;;;;23.80;87.10;;;;;;5021291;28;20407;-56
2023/08/15 04:56:55;;;;;;;;;;;23.70;86.50;;;;;;5018650;28;20374;-55
2023/08/15 04:59:20;;;;;;;;;;;23.70;87.60;;;;;;5022636;28;20300;-56
2023/08/15 05:01:46;;;;;;;;;;;23.70;87.80;;;;;;5024421;28;20293;-55
2023/08/15 05:04:11;;;;;;;;;;;23.60;88.20;;;;;;5036049;28;19913;-55
2023/08/15 05:06:38;;;;;;;;;;;23.60;88.10;;;;;;5036226;28;19913;-55
2023/08/15 05:09:03;;;;;;;;;;;23.60;88.30;;;;;;5042421;28;19917;-56
2023/08/15 05:11:29;;;;;;;;;;;23.60;88.30;;;;;;5041955;28;20269;-55
2023/08/15 05:13:54;;;;;;;;;;;23.70;88.20;;;;;;5044710;28;19970;-56
2023/08/15 05:16:20;;;;;;;;;;;23.70;88.30;;;;;;5037633;28;19919;-56
2023/08/15 05:18:45;;;;;;;;;;;23.60;88.50;;;;;;5036672;28;19921;-56
2023/08/15 05:21:11;;;;;;;;;;;23.60;88.80;;;;;;5026505;28;20011;-57
2023/08/15 05:23:36;;;;;;;;;;;23.60;88.50;;;;;;5020887;28;20977;-55
2023/08/15 05:26:02;;;;;;;;;;;23.60;88.70;;;;;;5023829;28;20388;-55
2023/08/15 05:28:27;;;;;;;;;;;23.60;89.20;;;;;;5022183;28;20338;-56
2023/08/15 05:30:53;;;;;;;;;;;23.60;88.80;;;;;;5023347;28;19965;-56
2023/08/15 05:33:18;;;;;;;;;;;23.70;88.50;;;;;;5037662;28;19991;-56
2023/08/15 05:35:44;;;;;;;;;;;23.70;88.00;;;;;;5036942;28;19917;-55
2023/08/15 05:38:09;;;;;;;;;;;23.70;88.40;;;;;;5032727;28;20484;-55
2023/08/15 05:40:35;;;;;;;;;;;23.70;88.70;;;;;;5033071;28;20446;-55
2023/08/15 05:43:00;;;;;;;;;;;23.60;89.10;;;;;;5033636;28;19913;-55
2023/08/15 05:45:26;;;;;;;;;;;23.60;89.60;;;;;;5038584;28;19924;-56
2023/08/15 05:47:51;;;;;;;;;;;23.50;89.30;;;;;;5031724;28;19917;-56
2023/08/15 05:50:16;;;;;;;;;;;23.50;90.00;;;;;;5031687;28;20393;-55
2023/08/15 05:52:42;;;;;;;;;;;23.50;90.00;;;;;;5029207;28;19913;-56
2023/08/15 05:55:07;;;;;;;;;;;23.50;90.10;;;;;;5032798;28;19909;-57
2023/08/15 05:57:33;;;;;;;;;;;23.50;90.10;;;;;;5029415;28;19917;-55
2023/08/15 05:59:58;;;;;;;;;;;23.60;90.20;;;;;;5030821;28;19971;-56
2023/08/15 06:02:24;;;;;;;;;;;23.60;90.20;;;;;;5030787;28;19917;-56
2023/08/15 06:04:49;;;;;;;;;;;23.60;90.10;;;;;;5029093;28;19917;-55
2023/08/15 06:07:15;;;;;;;;;;;23.60;90.30;;;;;;5032938;28;20377;-56
2023/08/15 06:09:40;;;;;;;;;;;23.60;90.30;;;;;;5052494;28;19917;-56
2023/08/15 06:12:06;;;;;;;;;;;23.60;90.40;;;;;;5048072;28;19909;-55
2023/08/15 06:14:32;;;;;;;;;;;23.60;90.50;;;;;;5049815;28;19909;-55
2023/08/15 06:16:57;;;;;;;;;;;23.70;90.40;;;;;;5039989;28;19940;-56
2023/08/15 06:19:23;;;;;;;;;;;23.70;90.50;;;;;;5033869;28;19963;-55
2023/08/15 06:21:48;;;;;;;;;;;23.70;90.40;;;;;;5028763;28;19917;-55
2023/08/15 06:24:13;;;;;;;;;;;23.70;90.50;;;;;;5029204;28;20335;-55
2023/08/15 06:26:39;;;;;;;;;;;23.70;90.20;;;;;;5032480;28;19920;-56
2023/08/15 06:29:04;;;;;;;;;;;23.80;90.40;;;;;;5045063;28;19916;-56
2023/08/15 06:31:30;;;;;;;;;;;23.80;90.40;;;;;;5031378;28;19959;-56
2023/08/15 06:33:56;;;;;;;;;;;23.80;90.40;;;;;;5030156;28;20262;-57
2023/08/15 06:36:21;;;;;;;;;;;23.80;90.30;;;;;;5031312;28;20027;-55
2023/08/15 06:38:49;;;;;;;;;;;23.80;90.20;;;;;;5039273;28;20491;-56
2023/08/15 06:41:14;;;;;;;;;;;23.80;90.50;;;;;;5040955;28;19928;-56
2023/08/15 06:43:40;;;;;;;;;;;23.80;90.50;;;;;;5039874;28;19939;-56
2023/08/15 06:46:05;;;;;;;;;;;23.80;90.40;;;;;;5031046;28;19916;-56
2023/08/15 06:48:30;;;;;;;;;;;23.80;90.20;;;;;;5047413;28;20011;-55
2023/08/15 06:50:56;;;;;;;;;;;23.80;90.50;;;;;;5030009;28;19979;-56
2023/08/15 06:53:21;;;;;;;;;;;23.80;90.30;;;;;;5036808;28;19936;-56
2023/08/15 06:55:50;;;;;;;;;;;23.90;90.70;;;;;;5024042;28;19917;-55
2023/08/15 06:58:16;;;;;;;;;;;23.90;90.50;;;;;;5028509;28;19939;-56
2023/08/15 07:00:42;;;;;;;;;;;23.90;90.50;;;;;;5034272;28;20385;-56
2023/08/15 07:03:07;;;;;;;;;;;23.90;90.60;;;;;;5033729;28;21557;-56
2023/08/15 07:05:33;;;;;;;;;;;24.00;90.60;;;;;;5028599;28;19929;-56
2023/08/15 07:07:59;;;;;;;;;;;24.00;90.60;;;;;;5032483;28;19914;-55
2023/08/15 07:10:25;;;;;;;;;;;24.00;90.70;;;;;;5033919;28;19975;-57
2023/08/15 07:12:50;;;;;;;;;;;24.00;90.90;;;;;;5034672;28;19909;-56
2023/08/15 07:15:16;;;;;;;;;;;24.00;90.80;;;;;;5026149;28;19917;-57
2023/08/15 07:17:41;;;;;;;;;;;24.00;91.00;;;;;;5034876;28;19909;-57
2023/08/15 07:20:08;;;;;;;;;;;24.10;91.00;;;;;;5032279;28;19924;-57
2023/08/15 07:22:34;;;;;;;;;;;24.10;91.00;;;;;;5034139;28;19983;-56
2023/08/15 07:25:00;;;;;;;;;;;24.10;91.00;;;;;;5031611;28;20316;-55
2023/08/15 07:27:25;;;;;;;;;;;24.10;91.00;;;;;;5038991;28;19909;-56
2023/08/15 07:29:51;;;;;;;;;;;24.10;90.90;;;;;;5033425;28;19913;-56
2023/08/15 07:32:16;;;;;;;;;;;24.10;90.90;;;;;;5027785;28;19962;-56
2023/08/15 07:34:42;;;;;;;;;;;24.10;90.90;;;;;;5027392;28;20054;-57
2023/08/15 07:37:07;;;;;;;;;;;24.10;90.90;;;;;;5033379;28;19913;-57
2023/08/15 07:39:33;;;;;;;;;;;24.10;90.80;;;;;;5029933;28;19917;-57
2023/08/15 07:41:58;;;;;;;;;;;24.10;90.80;;;;;;5041922;28;19917;-56
2023/08/15 07:44:25;;;;;;;;;;;24.10;90.80;;;;;;5036913;28;19927;-55
2023/08/15 07:46:51;;;;;;;;;;;24.10;90.80;;;;;;5036529;28;20289;-56
2023/08/15 07:49:16;;;;;;;;;;;24.10;90.70;;;;;;5034769;28;19926;-57
2023/08/15 07:51:42;;;;;;;;;;;24.10;90.80;;;;;;5034405;28;19913;-55
2023/08/15 07:54:07;;;;;;;;;;;24.10;90.80;;;;;;5034550;28;20002;-56
2023/08/15 07:56:33;;;;;;;;;;;24.10;90.80;;;;;;5033536;28;19967;-57
2023/08/15 07:58:59;;;;;;;;;;;24.10;90.90;;;;;;5036793;28;19913;-56
2023/08/15 08:01:24;;;;;;;;;;;24.10;91.10;;;;;;5033954;28;19918;-56
2023/08/15 08:03:50;;;;;;;;;;;24.10;91.00;;;;;;5028265;28;19917;-55
2023/08/15 08:06:15;;;;;;;;;;;24.10;91.20;;;;;;5030515;28;19924;-55
2023/08/15 08:08:41;;;;;;;;;;;24.10;91.30;;;;;;5033722;28;20004;-55
2023/08/15 08:11:07;;;;;;;;;;;24.10;91.30;;;;;;5032705;28;19909;-54
2023/08/15 08:13:32;;;;;;;;;;;24.10;91.50;;;;;;5022988;28;19913;-57
2023/08/15 08:15:58;;;;;;;;;;;24.10;91.60;;;;;;5033816;28;20407;-55
2023/08/15 08:18:23;;;;;;;;;;;24.00;91.60;;;;;;5031831;28;19927;-54
2023/08/15 08:20:49;;;;;;;;;;;24.00;91.50;;;;;;5031051;28;19936;-55
2023/08/15 08:23:15;;;;;;;;;;;24.10;91.40;;;;;;5033868;28;20328;-55
2023/08/15 08:25:40;;;;;;;;;;;24.00;91.80;;;;;;5033881;28;19919;-56
2023/08/15 08:28:06;;;;;;;;;;;24.00;92.00;;;;;;5032854;28;19913;-55
2023/08/15 08:30:34;;;;;;;;;;;24.00;92.00;;;;;;5033273;28;19920;-54
2023/08/15 08:32:59;;;;;;;;;;;24.00;92.00;;;;;;5033921;28;20000;-54
2023/08/15 08:35:25;;;;;;;;;;;24.00;92.10;;;;;;5032130;28;20051;-54
2023/08/15 08:37:51;;;;;;;;;;;24.00;92.10;;;;;;5031919;28;19921;-55
2023/08/15 08:40:17;;;;;;;;;;;24.00;92.10;;;;;;5033184;28;19913;-55
2023/08/15 08:42:43;;;;;;;;;;;24.10;92.10;;;;;;5032635;28;19932;-54
2023/08/15 08:45:08;;;;;;;;;;;24.10;91.90;;;;;;5015457;28;19936;-54
2023/08/15 08:47:34;;;;;;;;;;;24.10;92.00;;;;;;5028779;28;20008;-56
2023/08/15 08:50:00;;;;;;;;;;;24.10;92.20;;;;;;5031523;28;19921;-56
2023/08/15 08:52:26;;;;;;;;;;;24.20;92.10;;;;;;5027166;28;19928;-55
2023/08/15 08:54:52;;;;;;;;;;;24.20;92.10;;;;;;5030119;28;20006;-57
2023/08/15 08:57:17;;;;;;;;;;;24.20;92.20;;;;;;5033088;28;19944;-57
2023/08/15 08:59:43;;;;;;;;;;;24.20;91.70;;;;;;5034184;28;20313;-56
2023/08/15 09:02:10;;;;;;;;;;;24.20;91.80;;;;;;5031563;28;19924;-57
2023/08/15 09:04:35;;;;;;;;;;;24.20;92.50;;;;;;5038785;28;19964;-57
2023/08/15 09:07:01;;;;;;;;;;;24.20;92.10;;;;;;5035576;28;19955;-58
2023/08/15 09:09:26;;;;;;;;;;;24.20;92.40;;;;;;5037442;28;19913;-57
2023/08/15 09:11:52;;;;;;;;;;;24.20;92.60;;;;;;5033530;28;19932;-57
2023/08/15 09:14:18;;;;;;;;;;;24.20;92.60;;;;;;5028364;28;20539;-54
2023/08/15 09:16:49;;;;;;;;;;;24.20;92.70;;;;;;5030419;28;20304;-55
2023/08/15 09:19:15;;;;;;;;;;;24.20;92.60;;;;;;5032407;28;19916;-55
2023/08/15 09:21:41;;;;;;;;;;;24.20;92.20;;;;;;5026194;28;19913;-56
2023/08/15 09:24:07;;;;;;;;;;;24.20;92.20;;;;;;5027250;28;19965;-56
2023/08/15 09:26:32;;;;;;;;;;;24.20;92.50;;;;;;5029679;28;20008;-56
2023/08/15 09:28:58;;;;;;;;;;;24.30;92.90;;;;;;5035704;28;19917;-57
2023/08/15 09:31:23;;;;;;;;;;;24.30;92.90;;;;;;5031437;28;20007;-56
2023/08/15 09:33:49;;;;;;;;;;;24.20;93.00;;;;;;5029177;28;19984;-57
2023/08/15 09:36:15;;;;;;;;;;;24.20;93.10;;;;;;5035564;28;19917;-55
2023/08/15 09:38:41;;;;;;;;;;;24.20;93.00;;;;;;5020152;28;19917;-57
2023/08/15 09:41:09;;;;;;;;;;;24.30;93.10;;;;;;5028602;28;20369;-55
2023/08/15 09:43:34;;;;;;;;;;;24.30;93.10;;;;;;5025757;28;19916;-56
2023/08/15 09:46:00;;;;;;;;;;;24.30;93.00;;;;;;5028571;28;19975;-56
2023/08/15 09:48:25;;;;;;;;;;;24.30;92.80;;;;;;5037392;28;19970;-56
2023/08/15 09:50:51;;;;;;;;;;;24.40;92.60;;;;;;5027224;28;20284;-55
2023/08/15 09:53:16;;;;;;;;;;;24.40;92.60;;;;;;5039531;28;19920;-55
2023/08/15 09:55:41;;;;;;;;;;;24.40;92.40;;;;;;5028660;28;19928;-56
2023/08/15 09:58:07;;;;;;;;;;;24.40;92.30;;;;;;5040000;28;20403;-55
2023/08/15 10:00:34;;;;;;;;;;;24.50;92.20;;;;;;5039469;28;20396;-55
2023/08/15 10:03:14;;;;;;;;;;;24.50;92.10;;;;;;5032996;28;20849;-54
2023/08/15 10:05:40;;;;;;;;;;;24.50;91.90;;;;;;5031400;28;19921;-56
2023/08/15 10:08:06;;;;;;;;;;;24.50;91.80;;;;;;5020003;28;19952;-57
2023/08/15 10:10:32;;;;;;;;;;;24.60;91.70;;;;;;5037702;28;19990;-55
2023/08/15 10:12:57;;;;;;;;;;;24.70;91.60;;;;;;5039460;28;19909;-56
2023/08/15 10:15:23;;;;;;;;;;;24.60;91.50;;;;;;5018896;28;19913;-56
2023/08/15 10:17:48;;;;;;;;;;;24.70;91.50;;;;;;5030069;28;19919;-55
2023/08/15 10:20:18;;;;;;;;;;;24.70;91.30;;;;;;5029657;28;19975;-56
2023/08/15 10:22:43;;;;;;;;;;;24.70;91.10;;;;;;5036194;28;19932;-54
2023/08/15 10:25:24;;;;;;;;;;;24.70;91.20;;;;;;5031079;28;19991;-55
2023/08/15 10:27:52;;;;;;;;;;;24.70;91.10;;;;;;5029773;28;20316;-57
2023/08/15 10:30:30;;;;;;;;;;;24.80;91.40;;;;;;5038589;28;20261;-55
2023/08/15 10:32:58;;;;;;;;;;;24.80;91.30;;;;;;5035348;28;19917;-56
2023/08/15 10:35:26;;;;;;;;;;;24.90;91.10;;;;;;5036468;28;20596;-54
2023/08/15 10:37:54;;;;;;;;;;;24.90;91.00;;;;;;5040684;28;20416;-57
2023/08/15 10:40:20;;;;;;;;;;;24.80;90.90;;;;;;5030767;28;20343;-55
2023/08/15 10:43:00;;;;;;;;;;;24.80;91.10;;;;;;5004565;28;20505;-56
2023/08/15 10:45:26;;;;;;;;;;;24.80;90.90;;;;;;5027581;28;19917;-55
2023/08/15 10:47:54;;;;;;;;;;;24.80;90.70;;;;;;5033580;28;19913;-56
2023/08/15 10:50:20;;;;;;;;;;;24.70;90.60;;;;;;5024512;28;20389;-56
2023/08/15 10:52:55;;;;;;;;;;;24.80;90.70;;;;;;5027405;28;20011;-56
2023/08/15 10:55:23;;;;;;;;;;;24.80;90.70;;;;;;5020269;28;19924;-57
2023/08/15 10:57:48;;;;;;;;;;;24.80;90.70;;;;;;5026369;28;19917;-56
2023/08/15 11:00:16;;;;;;;;;;;24.80;90.70;;;;;;5029498;28;20499;-56
2023/08/15 11:02:42;;;;;;;;;;;24.70;90.70;;;;;;5027425;28;19917;-55
2023/08/15 11:05:07;;;;;;;;;;;24.70;90.80;;;;;;5032673;28;20531;-55
2023/08/15 11:07:33;;;;;;;;;;;24.70;90.90;;;;;;5032969;28;20016;-55
2023/08/15 11:09:58;;;;;;;;;;;24.70;90.90;;;;;;5036281;28;19964;-54
2023/08/15 11:12:24;;;;;;;;;;;24.70;91.00;;;;;;5033082;28;19959;-57
2023/08/15 11:14:52;;;;;;;;;;;24.70;90.90;;;;;;5033819;28;19927;-54
2023/08/15 11:17:17;;;;;;;;;;;24.70;90.90;;;;;;5020491;28;20016;-55
2023/08/15 11:19:44;;;;;;;;;;;24.70;91.00;;;;;;5028116;28;20676;-55
2023/08/15 11:22:09;;;;;;;;;;;24.70;91.00;;;;;;5026635;28;19921;-56
2023/08/15 11:24:35;;;;;;;;;;;24.70;91.50;;;;;;5025986;28;20292;-56
2023/08/15 11:27:01;;;;;;;;;;;24.70;91.20;;;;;;5034572;28;19951;-56
2023/08/15 11:29:27;;;;;;;;;;;24.70;91.30;;;;;;5033136;28;19932;-56
2023/08/15 11:31:54;;;;;;;;;;;24.70;91.20;;;;;;5042267;28;19909;-56
2023/08/15 11:34:21;;;;;;;;;;;24.80;91.30;;;;;;5015412;28;19913;-57
2023/08/15 11:36:46;;;;;;;;;;;24.90;91.20;;;;;;5025458;28;19921;-56
2023/08/15 11:39:12;;;;;;;;;;;24.90;91.10;;;;;;5036901;28;20016;-56
2023/08/15 11:41:38;;;;;;;;;;;24.90;91.00;;;;;;5029094;28;19913;-57
2023/08/15 11:44:03;;;;;;;;;;;25.00;90.70;;;;;;5020896;28;19917;-57
2023/08/15 11:46:30;;;;;;;;;;;25.10;90.50;;;;;;5035604;28;19917;-56
2023/08/15 11:48:55;;;;;;;;;;;25.10;90.20;;;;;;5017833;28;20039;-56
2023/08/15 11:51:21;;;;;;;;;;;25.10;90.00;;;;;;5032999;28;20421;-56
2023/08/15 11:53:53;;;;;;;;;;;25.20;89.40;;;;;;5030716;28;19921;-57
2023/08/15 11:56:21;;;;;;;;;;;25.20;89.10;;;;;;5030909;28;20343;-57
2023/08/15 11:58:46;;;;;;;;;;;25.30;88.60;;;;;;5033842;28;20316;-56
2023/08/15 12:01:12;;;;;;;;;;;25.20;88.00;;;;;;5033500;28;19922;-57
2023/08/15 12:03:37;;;;;;;;;;;25.20;87.40;;;;;;5027907;28;20369;-56
2023/08/15 12:06:07;;;;;;;;;;;25.20;87.40;;;;;;5033102;28;19924;-55
2023/08/15 12:08:32;;;;;;;;;;;25.10;87.30;;;;;;5030058;28;19913;-55
2023/08/15 12:10:59;;;;;;;;;;;25.10;87.30;;;;;;5018897;28;19914;-55
2023/08/15 12:13:31;;;;;;;;;;;25.10;87.30;;;;;;5017305;28;19948;-56
2023/08/15 12:15:56;;;;;;;;;;;25.10;87.40;;;;;;5035551;28;19913;-55
2023/08/15 12:18:22;;;;;;;;;;;25.00;87.50;;;;;;5032629;28;19921;-55
2023/08/15 12:20:47;;;;;;;;;;;25.00;87.70;;;;;;5033552;28;19909;-55
2023/08/15 12:23:13;;;;;;;;;;;25.00;87.60;;;;;;5032194;28;19917;-55
2023/08/15 12:25:38;;;;;;;;;;;25.00;87.30;;;;;;5031862;28;19926;-55
2023/08/15 12:28:04;;;;;;;;;;;24.90;86.70;;;;;;5033684;28;20003;-56
2023/08/15 12:30:30;;;;;;;;;;;24.90;87.20;;;;;;5029888;28;19920;-56
2023/08/15 12:32:55;;;;;;;;;;;25.00;86.30;;;;;;5032706;28;20021;-55
2023/08/15 12:35:20;;;;;;;;;;;25.00;85.90;;;;;;5032353;28;19967;-55
2023/08/15 12:37:46;;;;;;;;;;;25.10;85.60;;;;;;5033994;28;19975;-55
2023/08/15 12:40:11;;;;;;;;;;;25.10;85.70;;;;;;5030707;28;20340;-55
2023/08/15 12:42:37;;;;;;;;;;;25.10;85.30;;;;;;5032121;28;20289;-55
2023/08/15 12:45:03;;;;;;;;;;;25.10;85.00;;;;;;5025752;28;19917;-56
2023/08/15 12:47:29;;;;;;;;;;;25.10;85.70;;;;;;5033210;28;20000;-55
2023/08/15 12:49:55;;;;;;;;;;;25.10;85.10;;;;;;5029793;28;19983;-56
2023/08/15 12:52:20;;;;;;;;;;;25.10;84.90;;;;;;5033231;28;19913;-55
2023/08/15 12:54:46;;;;;;;;;;;25.20;84.80;;;;;;5012963;28;19909;-55
2023/08/15 12:57:12;;;;;;;;;;;25.20;84.60;;;;;;5031737;28;19914;-55
2023/08/15 12:59:37;;;;;;;;;;;25.30;84.10;;;;;;5032026;28;19917;-55
2023/08/15 13:02:03;;;;;;;;;;;25.40;83.80;;;;;;5019973;28;19914;-56
2023/08/15 13:04:28;;;;;;;;;;;25.40;83.00;;;;;;5019952;28;19970;-55
2023/08/15 13:06:54;;;;;;;;;;;25.50;82.90;;;;;;5025080;28;19917;-55
2023/08/15 13:09:19;;;;;;;;;;;25.60;81.60;;;;;;5022563;28;19948;-57
2023/08/15 13:11:45;;;;;;;;;;;25.60;80.90;;;;;;5031329;28;19929;-57
2023/08/15 13:14:10;;;;;;;;;;;25.60;79.90;;;;;;5028913;28;19909;-56
2023/08/15 13:16:35;;;;;;;;;;;25.60;79.00;;;;;;5021482;28;20399;-56
2023/08/15 13:19:01;;;;;;;;;;;25.60;78.90;;;;;;5022650;28;20288;-56
2023/08/15 13:21:28;;;;;;;;;;;25.60;78.50;;;;;;5030798;28;19924;-57
2023/08/15 13:23:53;;;;;;;;;;;25.60;77.40;;;;;;5025646;28;19989;-56
2023/08/15 13:26:19;;;;;;;;;;;25.60;76.90;;;;;;5029214;28;19921;-56
2023/08/15 13:28:46;;;;;;;;;;;25.60;76.10;;;;;;5030570;28;19913;-56
2023/08/15 13:31:11;;;;;;;;;;;25.60;75.80;;;;;;5030399;28;20407;-56
2023/08/15 13:33:37;;;;;;;;;;;25.60;76.40;;;;;;5031682;28;19960;-56
2023/08/15 13:36:02;;;;;;;;;;;25.70;75.70;;;;;;5027656;28;20003;-56
2023/08/15 13:38:28;;;;;;;;;;;25.70;75.40;;;;;;5019123;28;20620;-56
2023/08/15 13:40:53;;;;;;;;;;;25.70;74.90;;;;;;5032593;28;19917;-56
2023/08/15 13:43:19;;;;;;;;;;;25.70;75.30;;;;;;5032631;28;19920;-58
2023/08/15 13:45:44;;;;;;;;;;;25.70;75.30;;;;;;5028948;28;20011;-56
2023/08/15 13:48:09;;;;;;;;;;;25.60;74.10;;;;;;5030750;28;19944;-57
2023/08/15 13:50:35;;;;;;;;;;;25.70;74.40;;;;;;5029099;28;20439;-56
2023/08/15 13:53:02;;;;;;;;;;;25.70;73.80;;;;;;5032092;28;19952;-56
2023/08/15 13:55:27;;;;;;;;;;;25.70;74.20;;;;;;5032749;28;19917;-55
2023/08/15 13:57:52;;;;;;;;;;;25.70;74.10;;;;;;5031975;28;19939;-55
2023/08/15 14:00:18;;;;;;;;;;;25.60;74.10;;;;;;5025301;28;19928;-55
2023/08/15 14:02:43;;;;;;;;;;;25.60;74.40;;;;;;5048918;28;19960;-56
2023/08/15 14:05:09;;;;;;;;;;;25.50;74.20;;;;;;5040243;28;19921;-57
2023/08/15 14:07:34;;;;;;;;;;;25.60;74.30;;;;;;5032644;28;19944;-55
2023/08/15 14:10:00;;;;;;;;;;;25.60;74.20;;;;;;5021844;28;20008;-56